This is the latest recevied weather packets stored in our database for station/object GW1477. If no packets are shown the sender has not sent any weather packets the latest 10 day(s).
| Time | Temp. | Humidity | Pressure | Rain* | Wind** | Luminosity | Snow |
|---|---|---|---|---|---|---|---|
| 1777625668 | -1.11° C | 96% | - | 0 mm | - | - | - |
| 1777624612 | -1.11° C | 96% | - | 0 mm | - | - | - |
| 1777624253 | -1.11° C | 96% | - | 0 mm | - | - | - |
| 1777623876 | -1.11° C | 96% | - | 0 mm | - | - | - |
| 1777623144 | -1.11° C | 96% | - | 0 mm | - | - | - |
| 1777621373 | -1.11° C | 96% | - | 0 mm | - | - | - |
| 1777620987 | -1.11° C | 96% | - | 0 mm | - | - | - |
| 1777618453 | -0.56° C | 95% | - | 0 mm | - | - | - |
| 1777615948 | 0° C | 95% | - | 0 mm | - | - | - |
| 1777613420 | 0.56° C | 95% | - | 0 mm | - | - | - |
| 1777605170 | 3.89° C | 87% | - | 0 mm | - | - | - |
| 1777604801 | 4.44° C | 86% | - | 0 mm | - | - | - |
| 1777602278 | 3.33° C | 89% | - | 0 mm | - | - | - |
| 1777600495 | 3.89° C | 88% | - | 0 mm | - | - | - |
| 1777598331 | 3.89° C | 89% | - | 0 mm | - | - | - |
| 1777595807 | 4.44° C | 89% | - | 0 mm | - | - | - |
| 1777592921 | 6.11° C | 80% | - | 0 mm | - | - | - |
| 1777590413 | 6.67° C | 81% | - | 0 mm | - | - | - |
| 1777588951 | 7.78° C | 73% | - | 0 mm | - | - | - |
| 1777584619 | 8.89° C | 63% | - | 0 mm | - | - | - |
| 1777583566 | 8.89° C | 65% | - | 0 mm | - | - | - |
| 1777573462 | 10° C | 56% | - | 0 mm | - | - | - |
| 1777573123 | 10.56° C | 58% | - | 0 mm | - | - | - |
| 1777568074 | 10° C | 59% | - | 0 mm | - | - | - |
| 1777564853 | 10° C | 59% | - | 0 mm | - | - | - |
* Rain since midnight (hover to see other rain measurements)
** Current wind speed in m/s (hover to see current wind gust speed)